Pineville, MO (64856)

1:22 PM CDT on April 26, 2017 (GMT -0500)
Brush Creek | | Change Station

Elev 1056 ft 36.51 °N, 94.34 °W | Updated 5 seconds ago

Overcast
Overcast
48.0 °F
Feels Like 47 °F
N
3.6
Wind Variable Wind from North
Gusts 4.9 mph

Today
High -- | Low -- °F
--% Chance of Precip.
Yesterday
High -- | Low -- °F
Precip. -- in
Pressure 29.59 in
Visibility 1.8 miles
Clouds Overcast 600 ft
Windchill 47 °F
Dew Point 47 °F
Humidity 97%
Rainfall 1.06 in
Snow Depth Not available.
6:29 AM 8:01 PM
New Moon, 0% visible
METAR KVBT 261815Z AUTO 01007KT 1 3/4SM OVC006 09/07 A2959 RMK AO1
Pressure 29.59 in
Visibility 1.8 miles
Clouds Overcast 600 ft
Windchill 47 °F
Dew Point 47 °F
Humidity 97%
Rainfall 1.06 in
Snow Depth Not available.
6:29 AM 8:01 PM
New Moon, 0% visible
METAR KVBT 261815Z AUTO 01007KT 1 3/4SM OVC006 09/07 A2959 RMK AO1

Get Severe Weather Alerts

Thanks for signing up!

Be on the lookout for a verification email in your inbox.

You'll start receiving the daily forecast at 8 AM.

×

10-Day Weather Forecast

Almanac

Astronomy

Apr. 26, 2017 Rise Set
Actual Time
Civil Twilight
Nautical Twilight
Astronomical Twilight
Moon
Length of Visible Light
Length of Day
Tomorrow will be .
, % of the Moon is Illuminated

Today's Extremes

State Highs State Lows

Community

WunderPhotos

WunderBlog® & News

Nearby

Air Quality

  Air Quality AQ Index Pollutant
Not available.

Snow Depth

Station Depth Elevation

Earthquake Activity

City Distance Mag. Time & Date
Minimum magnitude displayed is 2.5.

Coastal Water Temperatures

Place Temperature

Stations

Nearby Weather Stations

Station Location Temp. Windchill Dew Point Humidity Wind Precip. Elev Updated Type
                   

Watches & Warnings

There are currently no watches in effect.